Time;durP1;ratioP1;P1;durP2;ratioP2;P2;SDS_P1;SDS_P2;PMS_P1;PMS_P2;Temp;Humidity;BMP_temperature;BMP_pressure;BME280_temperature;BME280_humidity;BME280_pressure;Samples;Min_cycle;Max_cycle;Signal;HPM_P1;HPM_P2
2022/03/17 00:02:21;;;;;;;4.25;2.40;;;;;;;11.93;60.01;101460.97;5159365;28;20535;-77
2022/03/17 00:04:52;;;;;;;1.17;1.17;;;;;;;11.92;60.33;101466.25;5158568;28;20446;-80
2022/03/17 00:07:23;;;;;;;1.33;1.30;;;;;;;11.81;61.12;101464.72;5178746;28;20099;-78
2022/03/17 00:09:54;;;;;;;3.33;2.40;;;;;;;11.81;60.70;101466.47;5154409;28;20573;-79
2022/03/17 00:12:25;;;;;;;2.22;2.03;;;;;;;11.90;60.61;101450.50;5173041;28;20054;-78
2022/03/17 00:14:58;;;;;;;2.20;2.10;;;;;;;11.80;60.74;101462.09;5158096;28;20374;-80
2022/03/17 00:17:28;;;;;;;2.42;1.95;;;;;;;11.86;60.59;101464.59;5160207;28;20080;-78
2022/03/17 00:19:59;;;;;;;2.35;1.85;;;;;;;11.76;60.76;101463.09;5157468;28;20932;-77
2022/03/17 00:22:29;;;;;;;2.40;2.20;;;;;;;11.75;60.89;101464.84;5161200;28;20104;-78
2022/03/17 00:25:00;;;;;;;1.70;1.60;;;;;;;11.68;61.04;101467.63;5160894;28;20049;-78
2022/03/17 00:27:31;;;;;;;4.65;2.92;;;;;;;11.87;60.49;101471.59;5157000;28;20142;-77
2022/03/17 00:30:01;;;;;;;4.03;3.17;;;;;;;11.91;60.65;101468.03;5170723;28;20607;-80
2022/03/17 00:32:32;;;;;;;3.38;2.83;;;;;;;11.73;61.61;101469.28;5172444;28;20274;-77
2022/03/17 00:37:52;;;;;;;4.47;2.92;;;;;;;11.90;60.20;101468.91;5164424;28;20036;-80
2022/03/17 00:40:23;;;;;;;1.27;1.17;;;;;;;11.89;60.21;101467.19;5155989;28;20129;-77
2022/03/17 00:42:55;;;;;;;1.95;1.85;;;;;;;11.95;60.15;101464.41;5150376;28;20102;-79
2022/03/17 00:45:26;;;;;;;4.13;2.70;;;;;;;11.92;60.05;101456.63;5173647;28;21256;-78
2022/03/17 00:47:59;;;;;;;3.72;2.15;;;;;;;11.93;60.79;101446.94;5137171;28;20038;-79
2022/03/17 00:50:29;;;;;;;;;;;;;;;11.95;60.19;101456.53;5155689;28;20038;-79
2022/03/17 00:53:01;;;;;;;3.30;1.95;;;;;;;11.88;60.43;101454.06;5156983;28;20409;-79
2022/03/17 00:55:34;;;;;;;2.60;2.40;;;;;;;11.81;60.89;101455.97;5156186;28;20038;-78
2022/03/17 00:58:04;;;;;;;4.05;2.63;;;;;;;11.80;61.14;101448.97;5160340;28;20509;-77
2022/03/17 01:00:35;;;;;;;2.47;2.28;;;;;;;11.69;61.19;101456.22;5173663;28;20038;-78
2022/03/17 01:03:06;;;;;;;6.00;2.45;;;;;;;11.81;60.94;101453.31;5174997;28;20038;-78
2022/03/17 01:05:36;;;;;;;1.98;1.88;;;;;;;11.81;60.77;101450.69;5150856;28;20200;-79
2022/03/17 01:08:08;;;;;;;5.32;3.20;;;;;;;11.88;60.13;101443.56;5154372;28;20336;-79
2022/03/17 01:10:39;;;;;;;4.47;3.05;;;;;;;11.97;60.26;101446.03;5167853;28;20072;-78
2022/03/17 01:13:09;;;;;;;2.97;2.60;;;;;;;11.89;60.15;101446.16;5155662;28;20498;-78
2022/03/17 01:15:42;;;;;;;2.17;1.98;;;;;;;11.82;60.92;101455.06;5175850;28;20041;-78
2022/03/17 01:18:12;;;;;;;1.95;1.83;;;;;;;11.81;60.78;101450.69;5155603;28;20307;-78
2022/03/17 01:20:44;;;;;;;2.20;2.08;;;;;;;11.74;60.94;101449.94;5153189;28;20053;-78
2022/03/17 01:23:15;;;;;;;5.40;2.03;;;;;;;11.82;60.37;101453.28;5156451;28;20061;-78
2022/03/17 01:25:45;;;;;;;7.03;1.75;;;;;;;11.81;60.41;101459.47;5175309;28;20131;-77
2022/03/17 01:28:15;;;;;;;1.40;1.33;;;;;;;11.87;60.20;101447.94;5156289;28;20117;-78
2022/03/17 01:30:46;;;;;;;3.78;3.47;;;;;;;11.87;60.56;101453.19;5170274;28;20030;-77
2022/03/17 01:33:17;;;;;;;7.13;3.38;;;;;;;11.85;60.52;101440.97;5158373;28;20425;-78
2022/03/17 01:35:47;;;;;;;2.30;1.85;;;;;;;11.81;60.51;101448.97;5156896;28;20026;-77
2022/03/17 01:38:18;;;;;;;2.75;2.55;;;;;;;11.85;60.08;101440.97;5160725;28;20084;-78
2022/03/17 01:40:48;;;;;;;2.50;2.30;;;;;;;11.93;60.21;101449.56;5155496;28;20339;-78
2022/03/17 01:43:20;;;;;;;1.80;1.70;;;;;;;11.88;60.26;101452.31;5155095;28;20181;-77
2022/03/17 01:45:53;;;;;;;1.42;1.25;;;;;;;11.89;60.29;101450.56;5149326;28;20035;-77
2022/03/17 01:48:23;;;;;;;;;;;;;;;11.83;60.57;101456.81;5166036;28;20041;-78
2022/03/17 01:50:54;;;;;;;2.60;2.40;;;;;;;11.91;60.03;101452.25;5171203;28;19918;-77
2022/03/17 01:53:25;;;;;;;3.22;3.03;;;;;;;11.79;60.31;101458.63;5159838;28;20577;-78
2022/03/17 01:55:57;;;;;;;2.55;2.35;;;;;;;11.82;60.39;101457.69;5152530;28;20473;-80
2022/03/17 01:58:28;;;;;;;1.95;1.85;;;;;;;11.79;60.38;101453.38;5139529;28;20023;-79
2022/03/17 02:00:58;;;;;;;3.25;2.45;;;;;;;11.88;60.38;101456.72;5154492;28;20194;-77
2022/03/17 02:03:29;;;;;;;2.15;1.90;;;;;;;11.79;60.67;101447.22;5159356;28;20091;-77
2022/03/17 02:06:02;;;;;;;;;;;;;;;11.89;60.10;101453.19;5155578;28;20038;-79
2022/03/17 02:08:33;;;;;;;2.80;2.42;;;;;;;11.80;60.42;101454.22;5155934;28;19920;-79
2022/03/17 02:13:52;;;;;;;2.47;2.15;;;;;;;11.78;60.95;101453.38;5151436;28;20030;-79
2022/03/17 02:16:23;;;;;;;3.28;2.85;;;;;;;11.80;60.61;101457.72;5153959;28;20240;-78
2022/03/17 02:18:53;;;;;;;4.00;3.67;;;;;;;11.81;60.38;101453.31;5167191;28;20512;-77
2022/03/17 02:21:24;;;;;;;2.25;2.00;;;;;;;11.89;60.31;101445.28;5172995;28;20518;-80
2022/03/17 02:26:45;;;;;;;4.35;1.92;;;;;;;11.84;60.14;101449.75;5151235;28;20078;-78
2022/03/17 02:29:15;;;;;;;2.78;1.85;;;;;;;11.83;60.38;101456.81;5167082;28;20038;-78
2022/03/17 02:31:46;;;;;;;2.60;2.40;;;;;;;11.87;60.29;101454.97;5156289;28;20042;-79
2022/03/17 02:34:17;;;;;;;2.30;2.10;;;;;;;11.90;60.10;101463.66;5159608;28;20578;-78
2022/03/17 02:36:51;;;;;;;3.65;3.30;;;;;;;11.85;60.16;101460.28;5154198;28;20430;-77
2022/03/17 02:39:21;;;;;;;2.70;2.08;;;;;;;11.85;60.35;101462.91;5159709;28;20581;-77
2022/03/17 02:41:52;;;;;;;3.53;3.28;;;;;;;11.99;60.45;101459.13;5151619;28;20031;-77
2022/03/17 02:44:22;;;;;;;1.83;1.73;;;;;;;11.91;60.57;101460.13;5158162;28;20042;-77
2022/03/17 02:46:53;;;;;;;2.92;2.20;;;;;;;11.95;60.26;101443.38;5155135;28;20542;-79
2022/03/17 02:49:26;;;;;;;2.40;2.22;;;;;;;11.94;60.42;101457.41;5156612;28;20068;-79
2022/03/17 02:51:57;;;;;;;;;;;;;;;11.91;60.69;101451.38;5156623;28;20080;-78
2022/03/17 02:54:27;;;;;;;2.28;1.80;;;;;;;11.93;60.27;101460.97;5166788;28;19918;-77
2022/03/17 02:56:57;;;;;;;3.25;2.97;;;;;;;11.89;60.55;101458.44;5168189;28;20046;-79
2022/03/17 02:59:28;;;;;;;1.33;1.23;;;;;;;11.89;60.56;101461.94;5168678;28;20037;-77
2022/03/17 03:02:01;;;;;;;2.70;2.50;;;;;;;11.83;60.81;101459.44;5153918;28;20077;-77
2022/03/17 03:04:34;;;;;;;2.85;2.65;;;;;;;11.88;60.45;101452.31;5174002;28;20111;-80
2022/03/17 03:07:06;;;;;;;2.97;2.38;;;;;;;11.96;60.54;101445.13;5153433;28;20043;-78
2022/03/17 03:09:36;;;;;;;2.13;2.03;;;;;;;11.94;60.03;101446.91;5154288;28;20049;-78
2022/03/17 03:12:07;;;;;;;1.75;1.65;;;;;;;11.96;60.47;101454.78;5170728;28;20042;-77
2022/03/17 03:14:38;;;;;;;3.25;3.05;;;;;;;11.90;60.37;101474.19;5160755;28;20431;-77
2022/03/17 03:17:09;;;;;;;2.90;2.38;;;;;;;11.87;60.78;101466.34;5169502;28;20041;-77
2022/03/17 03:19:39;;;;;;;2.03;1.92;;;;;;;11.87;60.63;101473.38;5171529;28;20252;-77
2022/03/17 03:22:10;;;;;;;3.63;2.70;;;;;;;11.89;60.48;101477.69;5154554;28;20105;-77
2022/03/17 03:24:40;;;;;;;1.50;1.40;;;;;;;11.89;60.74;101485.59;5152670;28;20095;-76
2022/03/17 03:27:11;;;;;;;2.53;2.33;;;;;;;11.94;60.63;101488.13;5154099;28;20043;-76
2022/03/17 03:29:43;;;;;;;2.90;2.70;;;;;;;11.94;60.67;101494.25;5170226;28;20129;-76
2022/03/17 03:32:13;;;;;;;3.50;2.90;;;;;;;11.88;60.96;101502.25;5137828;28;20111;-77
2022/03/17 03:34:44;;;;;;;2.50;2.28;;;;;;;11.88;60.56;101504.91;5156212;28;20035;-77
2022/03/17 03:37:23;;;;;;;2.20;2.03;;;;;;;11.87;61.00;101510.19;5157291;28;20507;-76
2022/03/17 03:39:57;;;;;;;3.20;2.88;;;;;;;11.92;60.40;101514.47;5164215;28;20068;-76
2022/03/17 03:42:27;;;;;;;2.60;2.40;;;;;;;12.03;61.12;101518.66;5153728;28;20121;-76
2022/03/17 03:44:58;;;;;;;4.10;3.75;;;;;;;11.91;60.47;101525.88;5150586;28;20104;-77
2022/03/17 03:47:31;;;;;;;2.63;2.42;;;;;;;11.91;60.21;101525.88;5155384;28;20045;-76
2022/03/17 03:50:03;;;;;;;6.03;4.55;;;;;;;12.01;60.74;101537.09;5159491;28;20062;-76
2022/03/17 03:52:34;;;;;;;3.28;2.85;;;;;;;11.93;61.77;101537.25;5154267;28;20050;-76
2022/03/17 03:55:05;;;;;;;3.42;2.80;;;;;;;11.91;62.88;101540.78;5150716;28;20394;-76
2022/03/17 03:57:35;;;;;;;2.05;1.92;;;;;;;12.01;61.42;101544.16;5173837;28;20042;-76
2022/03/17 04:02:56;;;;;;;3.53;3.22;;;;;;;11.88;62.44;101554.84;5154923;28;20418;-76
2022/03/17 04:05:31;;;;;;;3.97;3.78;;;;;;;11.86;63.23;101553.16;5157194;28;20038;-77
2022/03/17 04:08:02;;;;;;;2.35;2.25;;;;;;;11.91;62.61;101567.06;5152221;28;20042;-77
2022/03/17 04:10:33;;;;;;;2.40;2.20;;;;;;;11.86;62.30;101568.94;5154861;28;20496;-76
2022/03/17 04:13:04;;;;;;;3.03;2.05;;;;;;;11.92;62.03;101569.69;5156597;28;20053;-77
2022/03/17 04:15:34;;;;;;;2.28;2.10;;;;;;;11.88;62.63;101573.25;5150036;28;20038;-76
2022/03/17 04:18:05;;;;;;;3.35;2.30;;;;;;;11.89;62.78;101577.63;5153835;28;20058;-77
2022/03/17 04:20:35;;;;;;;2.65;1.98;;;;;;;11.84;62.58;101578.59;5168009;28;20050;-77
2022/03/17 04:23:05;;;;;;;2.58;2.38;;;;;;;11.85;62.87;101588.22;5158647;28;20094;-77
2022/03/17 04:25:36;;;;;;;3.53;2.25;;;;;;;11.92;62.85;101585.47;5157714;28;20096;-76
2022/03/17 04:28:08;;;;;;;5.90;3.38;;;;;;;11.92;62.76;101584.59;5175837;28;20032;-76
2022/03/17 04:30:39;;;;;;;2.70;2.47;;;;;;;11.78;63.41;101588.34;5136940;28;20022;-77
2022/03/17 04:33:10;;;;;;;2.30;1.80;;;;;;;11.90;64.59;101597.78;5160965;28;20526;-77
2022/03/17 04:35:40;;;;;;;2.92;2.72;;;;;;;11.87;63.46;101602.22;5158170;28;20030;-76
2022/03/17 04:38:10;;;;;;;2.92;2.65;;;;;;;11.95;63.39;101609.06;5159597;28;20065;-76
2022/03/17 04:40:46;;;;;;;2.95;2.65;;;;;;;11.80;63.91;101606.72;5160263;28;20084;-76
2022/03/17 04:43:17;;;;;;;3.60;2.83;;;;;;;11.78;65.99;101613.75;5155060;28;20104;-76
2022/03/17 04:45:48;;;;;;;2.33;2.13;;;;;;;11.81;64.24;101617.22;5158388;28;20530;-76
2022/03/17 04:48:18;;;;;;;1.92;1.73;;;;;;;11.88;64.53;101615.34;5157109;28;20479;-76
2022/03/17 04:50:51;;;;;;;2.97;2.78;;;;;;;11.81;64.88;101622.50;5156031;28;20034;-75
2022/03/17 04:53:27;;;;;;;2.83;2.35;;;;;;;11.79;64.54;101624.28;5151558;28;20442;-76
2022/03/17 04:56:09;;;;;;;5.28;2.58;;;;;;;11.73;64.27;101634.03;5156116;28;20049;-76
2022/03/17 04:58:41;;;;;;;3.47;3.15;;;;;;;11.76;65.92;101641.88;5156902;28;20057;-77
2022/03/17 05:01:13;;;;;;;4.75;2.45;;;;;;;11.78;65.42;101646.19;5157507;28;20418;-77
2022/03/17 05:03:44;;;;;;;2.00;1.90;;;;;;;11.73;66.25;101645.41;5158626;28;20033;-77
2022/03/17 05:06:16;;;;;;;2.00;1.90;;;;;;;11.68;65.70;101655.13;5152199;28;20607;-77
2022/03/17 05:08:46;;;;;;;2.55;2.40;;;;;;;11.78;64.42;101666.34;5148494;28;20514;-76
2022/03/17 05:11:18;;;;;;;4.22;3.40;;;;;;;11.73;69.98;101678.72;5167599;28;20054;-76
2022/03/17 05:13:50;;;;;;;2.95;2.75;;;;;;;11.65;67.33;101692.84;5166631;28;20023;-76
2022/03/17 05:16:21;;;;;;;1.88;1.77;;;;;;;11.68;71.76;101701.59;5163923;28;20592;-76
2022/03/17 05:18:54;;;;;;;4.47;1.45;;;;;;;11.37;74.15;101696.78;5156532;28;20022;-79
2022/03/17 05:21:25;;;;;;;1.67;1.58;;;;;;;11.38;74.87;101704.66;5154012;28;20045;-77
2022/03/17 05:23:55;;;;;;;1.63;1.52;;;;;;;11.30;75.81;101717.91;5165263;28;20026;-77
2022/03/17 05:26:26;;;;;;;1.42;1.38;;;;;;;11.30;75.15;101715.28;5158412;28;20101;-78
2022/03/17 05:28:56;;;;;;;1.45;1.35;;;;;;;11.33;74.08;101731.00;5138892;28;20031;-77
2022/03/17 05:31:27;;;;;;;1.30;0.95;;;;;;;11.46;73.64;101743.94;5175301;28;20483;-78
2022/03/17 05:33:57;;;;;;;0.55;0.55;;;;;;;11.41;72.87;101746.66;5173238;28;20027;-79
2022/03/17 05:36:27;;;;;;;1.58;1.48;;;;;;;11.17;74.81;101751.34;5141395;28;20034;-77
2022/03/17 05:38:58;;;;;;;0.98;0.88;;;;;;;11.28;74.04;101766.97;5168925;28;20030;-76
2022/03/17 05:41:28;;;;;;;2.35;1.52;;;;;;;11.20;75.60;101767.97;5170109;28;20069;-76
2022/03/17 05:43:59;;;;;;;2.40;2.13;;;;;;;11.38;73.81;101782.59;5154338;28;20045;-77
2022/03/17 05:46:29;;;;;;;1.50;1.40;;;;;;;11.32;74.96;101789.69;5152958;28;20038;-77
2022/03/17 05:49:00;;;;;;;1.98;1.88;;;;;;;11.18;75.35;101789.88;5156760;28;20504;-76
2022/03/17 05:51:30;;;;;;;0.70;0.70;;;;;;;11.09;74.97;101803.09;5154804;28;20038;-76
2022/03/17 05:54:01;;;;;;;1.88;1.77;;;;;;;10.98;74.96;101810.25;5174170;28;20085;-77
2022/03/17 05:56:31;;;;;;;1.20;1.20;;;;;;;10.70;74.89;101821.91;5145419;28;20136;-76
2022/03/17 05:59:02;;;;;;;1.70;1.52;;;;;;;10.75;74.45;101813.13;5154382;28;20029;-77
2022/03/17 06:01:32;;;;;;;1.83;1.73;;;;;;;10.66;74.96;101841.19;5176698;28;20048;-76
2022/03/17 06:04:03;;;;;;;1.63;1.52;;;;;;;10.80;73.54;101842.81;5159940;28;20399;-78
2022/03/17 06:06:33;;;;;;;2.38;2.17;;;;;;;10.76;73.26;101851.63;5158904;28;20515;-78
2022/03/17 06:09:04;;;;;;;4.43;2.63;;;;;;;10.78;73.55;101860.34;5138720;28;20034;-78
2022/03/17 06:11:34;;;;;;;1.52;1.45;;;;;;;10.64;74.11;101856.09;5156089;28;20038;-77
2022/03/17 06:14:06;;;;;;;0.95;0.95;;;;;;;10.61;74.04;101871.00;5153000;28;20096;-78
2022/03/17 06:16:37;;;;;;;1.38;1.27;;;;;;;10.63;73.70;101872.72;5155259;28;20062;-78
2022/03/17 06:19:08;;;;;;;1.98;1.88;;;;;;;10.21;75.57;101882.63;5157795;28;20537;-77
2022/03/17 06:21:39;;;;;;;1.35;1.25;;;;;;;10.63;72.98;101898.09;5152291;28;20042;-77
2022/03/17 06:24:09;;;;;;;1.52;1.42;;;;;;;10.48;74.08;101899.97;5176233;28;20201;-76
2022/03/17 06:26:39;;;;;;;1.77;1.67;;;;;;;10.60;73.12;101899.00;5154996;28;20441;-75
2022/03/17 06:29:11;;;;;;;2.17;2.05;;;;;;;10.57;73.05;101912.16;5150966;28;20700;-75
2022/03/17 06:31:41;;;;;;;1.88;1.50;;;;;;;10.52;73.09;101919.19;5138671;28;20065;-75
2022/03/17 06:34:12;;;;;;;1.10;1.05;;;;;;;10.49;72.80;101921.84;5155648;28;20034;-75
2022/03/17 06:36:43;;;;;;;2.70;2.45;;;;;;;10.60;72.26;101934.88;5136609;28;20034;-75
2022/03/17 06:39:13;;;;;;;5.72;2.40;;;;;;;10.33;74.28;101934.16;5154084;28;20119;-76
2022/03/17 06:41:47;;;;;;;2.40;2.05;;;;;;;10.43;72.80;101946.34;5152174;28;20426;-76
2022/03/17 06:44:17;;;;;;;0.98;0.98;;;;;;;10.39;72.68;101969.13;5150978;28;20121;-74
2022/03/17 06:46:47;;;;;;;0.98;0.93;;;;;;;10.24;73.93;101974.44;5154573;28;20058;-74
2022/03/17 06:49:18;;;;;;;0.73;0.73;;;;;;;10.36;73.11;101983.97;5159092;28;20391;-76
2022/03/17 06:51:48;;;;;;;1.67;1.58;;;;;;;10.34;73.52;101985.72;5157151;28;20419;-76
2022/03/17 06:54:19;;;;;;;1.08;1.00;;;;;;;10.37;72.93;101997.09;5174805;28;20034;-77
2022/03/17 06:56:49;;;;;;;1.08;1.08;;;;;;;10.21;72.87;101998.94;5159606;28;20069;-77
2022/03/17 06:59:20;;;;;;;2.45;1.40;;;;;;;10.28;72.58;102009.38;5156507;28;20509;-76
2022/03/17 07:01:51;;;;;;;14.75;1.52;;;;;;;9.68;74.53;102007.88;5145921;28;20057;-76
2022/03/17 07:04:21;;;;;;;2.40;1.70;;;;;;;10.03;73.11;102023.50;5152501;28;20030;-76
2022/03/17 07:06:52;;;;;;;3.97;1.65;;;;;;;9.88;73.56;102023.53;5134837;28;20039;-76
2022/03/17 07:09:22;;;;;;;5.97;1.85;;;;;;;10.12;72.68;102019.09;5166334;28;20228;-76
2022/03/17 07:11:52;;;;;;;0.70;0.70;;;;;;;9.99;72.66;102027.00;5167343;28;20440;-76
2022/03/17 07:14:23;;;;;;;1.17;1.08;;;;;;;10.13;71.04;102026.06;5148125;28;20386;-76
2022/03/17 07:16:53;;;;;;;0.75;0.75;;;;;;;10.04;70.94;102040.94;5153529;28;20532;-76
2022/03/17 07:19:24;;;;;;;0.57;0.57;;;;;;;10.12;70.63;102043.56;5154912;28;20132;-76
2022/03/17 07:21:54;;;;;;;2.40;0.70;;;;;;;10.00;71.35;102049.72;5168068;28;20054;-77
2022/03/17 07:24:25;;;;;;;0.85;0.85;;;;;;;10.14;70.74;102052.28;5154682;28;20055;-77
2022/03/17 07:26:55;;;;;;;0.90;0.85;;;;;;;9.74;71.85;102069.00;5165918;28;20046;-77
2022/03/17 07:29:28;;;;;;;0.68;0.68;;;;;;;9.95;71.42;102061.09;5152548;28;20152;-76
2022/03/17 07:31:59;;;;;;;0.95;0.95;;;;;;;10.10;71.01;102070.66;5156251;28;20053;-75
2022/03/17 07:34:29;;;;;;;0.85;0.85;;;;;;;9.92;71.19;102083.81;5151783;28;20034;-76
2022/03/17 07:37:00;;;;;;;1.40;1.30;;;;;;;9.77;70.73;102089.97;5153351;28;20316;-75
2022/03/17 07:39:30;;;;;;;0.98;0.98;;;;;;;9.46;71.38;102097.00;5154844;28;20030;-78
2022/03/17 07:42:04;;;;;;;0.98;0.98;;;;;;;9.43;71.47;102103.13;5166809;28;20572;-75
2022/03/17 07:44:37;;;;;;;1.67;1.58;;;;;;;9.25;71.54;102106.63;5149577;28;20430;-78
2022/03/17 07:47:08;;;;;;;1.67;1.48;;;;;;;9.54;70.99;102116.22;5162991;28;20073;-75
2022/03/17 07:49:39;;;;;;;0.55;0.55;;;;;;;9.24;71.25;102123.19;5152058;28;20058;-74
2022/03/17 07:52:10;;;;;;;3.85;1.85;;;;;;;9.30;71.32;102130.16;5152781;28;20133;-76
2022/03/17 07:54:42;;;;;;;0.75;0.75;;;;;;;9.48;70.54;102121.47;5164789;28;20037;-75
2022/03/17 07:57:13;;;;;;;0.73;0.73;;;;;;;9.22;71.97;102131.91;5152282;28;20117;-75
2022/03/17 07:59:44;;;;;;;2.80;1.30;;;;;;;9.23;71.88;102138.88;5168034;28;20335;-76
2022/03/17 08:02:16;;;;;;;0.60;0.60;;;;;;;9.28;71.74;102147.66;5168485;28;20062;-76
2022/03/17 08:04:49;;;;;;;1.55;0.90;;;;;;;9.19;71.66;102152.88;5154493;28;20089;-76
2022/03/17 08:07:20;;;;;;;0.82;0.82;;;;;;;9.12;71.76;102154.59;5157213;28;20046;-76
2022/03/17 08:09:50;;;;;;;0.80;0.80;;;;;;;8.93;71.97;102162.38;5149456;28;20045;-76
2022/03/17 08:12:22;;;;;;;0.95;0.95;;;;;;;9.12;71.51;102163.34;5156102;28;20506;-75
2022/03/17 08:14:53;;;;;;;0.85;0.85;;;;;;;9.23;70.80;102171.22;5172411;28;20044;-76
2022/03/17 08:17:24;;;;;;;1.73;1.63;;;;;;;9.16;71.09;102173.78;5171279;28;20443;-75
2022/03/17 08:19:55;;;;;;;0.50;0.50;;;;;;;9.13;71.49;102175.53;5150885;28;20029;-76
2022/03/17 08:22:26;;;;;;;0.57;0.57;;;;;;;9.26;70.91;102179.03;5155056;28;20051;-75
2022/03/17 08:24:56;;;;;;;0.70;0.70;;;;;;;9.49;69.93;102177.34;5156514;28;20271;-76
2022/03/17 08:27:27;;;;;;;0.50;0.50;;;;;;;8.90;72.45;102185.06;5158933;28;20057;-76
2022/03/17 08:29:57;;;;;;;1.13;1.13;;;;;;;8.86;72.95;102181.56;5139155;28;20345;-76
2022/03/17 08:32:28;;;;;;;0.88;0.88;;;;;;;9.09;71.78;102184.25;5156743;28;20542;-76
2022/03/17 08:34:58;;;;;;;6.15;1.95;;;;;;;9.08;71.67;102197.38;5141614;28;20026;-76
2022/03/17 08:37:32;;;;;;;0.88;0.88;;;;;;;9.13;71.23;102198.25;5170398;28;20042;-75
2022/03/17 08:40:03;;;;;;;1.10;1.10;;;;;;;9.27;70.76;102206.13;5170382;28;20427;-75
2022/03/17 08:42:34;;;;;;;1.23;1.15;;;;;;;9.31;71.46;102209.63;5154004;28;20050;-75
2022/03/17 08:49:18;;;;;;;0.47;0.47;;;;;;;9.26;70.80;102220.09;5155468;28;20112;-75
2022/03/17 08:50:47;;;;;;;0.40;0.40;;;;;;;9.21;71.41;102230.56;5154531;28;20031;-75
2022/03/17 08:53:18;;;;;;;0.38;0.38;;;;;;;9.33;70.67;102234.94;5158263;28;20066;-74
2022/03/17 08:55:49;;;;;;;2.30;1.25;;;;;;;9.36;70.30;102237.59;5158021;28;20328;-75
2022/03/17 08:58:19;;;;;;;2.08;1.38;;;;;;;9.37;70.46;102247.19;5168217;28;20627;-75
2022/03/17 09:00:50;;;;;;;1.05;0.95;;;;;;;9.17;71.76;102254.09;5172413;28;20045;-75
2022/03/17 09:03:21;;;;;;;1.20;1.17;;;;;;;9.10;71.76;102256.72;5173407;28;20184;-75
2022/03/17 09:05:51;;;;;;;0.30;0.30;;;;;;;9.29;70.99;102270.75;5174196;28;20121;-75
2022/03/17 09:08:22;;;;;;;3.22;1.70;;;;;;;8.68;71.98;102271.34;5140176;28;20046;-76
2022/03/17 09:10:55;;;;;;;0.52;0.52;;;;;;;8.80;72.09;102271.41;5136785;28;20026;-76
2022/03/17 09:13:26;;;;;;;;;;;;;;;8.72;72.58;102273.09;5175986;28;20248;-75
2022/03/17 09:16:11;;;;;;;0.70;0.70;;;;;;;8.74;72.38;102281.84;5231952;22;19909;-79
2022/03/17 09:18:42;;;;;;;0.47;0.47;;;;;;;8.80;72.39;102291.47;5171752;28;20026;-78
2022/03/17 09:24:30;;;;;;;0.90;0.88;;;;;;;9.03;71.12;102291.59;5159241;28;20553;-78
2022/03/17 09:27:00;;;;;;;1.05;1.05;;;;;;;8.90;71.19;102284.53;5154078;28;20122;-79
2022/03/17 09:29:40;;;;;;;0.35;0.35;;;;;;;8.91;70.46;102300.28;5154195;28;20505;-79
2022/03/17 09:32:13;;;;;;;0.70;0.70;;;;;;;8.89;70.43;102296.75;5126798;28;20058;-79
2022/03/17 09:34:47;;;;;;;0.65;0.65;;;;;;;9.06;70.19;102295.97;5141349;28;20022;-80
2022/03/17 09:37:28;;;;;;;;;;;;;;;8.82;70.95;102308.94;5143598;28;20058;-80
2022/03/17 09:40:14;;;;;;;0.30;0.30;;;;;;;8.81;70.71;102316.78;5169069;28;19921;-80
2022/03/17 09:43:21;;;;;;;0.50;0.50;;;;;;;9.00;70.87;102317.75;5152462;28;20046;-79
2022/03/17 09:46:28;;;;;;;0.52;0.52;;;;;;;8.96;70.35;102326.47;5140278;28;20041;-79
2022/03/17 09:49:06;;;;;;;1.27;1.02;;;;;;;8.96;70.32;102335.19;5144081;28;20062;-80
2022/03/17 09:51:42;;;;;;;0.50;0.50;;;;;;;8.97;70.14;102334.34;5117974;28;20046;-79
2022/03/17 09:54:25;;;;;;;0.70;0.70;;;;;;;9.11;69.88;102325.66;5161089;28;20030;-79
2022/03/17 09:57:53;;;;;;;;;;;;;;;9.05;69.16;102339.59;5172243;28;20038;-80
2022/03/17 10:00:48;;;;;;;0.40;0.40;;;;;;;8.93;68.77;102347.41;5159151;28;19941;-81
2022/03/17 10:03:34;;;;;;;0.30;0.30;;;;;;;8.92;68.16;102351.78;5153989;28;20081;-82
2022/03/17 10:09:17;;;;;;;0.38;0.38;;;;;;;9.00;69.13;102362.25;5171786;28;20062;-82
2022/03/17 10:12:23;;;;;;;0.55;0.55;;;;;;;8.85;68.34;102367.41;5140481;28;20055;-81
2022/03/17 10:15:18;;;;;;;0.30;0.30;;;;;;;8.89;67.86;102361.31;5142154;28;20617;-80
2022/03/17 10:17:49;;;;;;;0.30;0.30;;;;;;;9.11;67.47;102371.06;5145794;28;20069;-80
2022/03/17 10:20:33;;;;;;;0.35;0.35;;;;;;;9.12;67.77;102383.28;5158375;28;20034;-82
2022/03/17 10:23:31;;;;;;;;;;;;;;;;;;;;;
2022/03/17 10:27:11;;;;;;;0.60;0.60;;;;;;;8.97;67.32;102378.84;5094780;29;20056;-81
2022/03/17 10:30:19;;;;;;;0.93;0.93;;;;;;;9.05;67.00;102381.47;5115479;28;20048;-81
2022/03/17 10:33:55;;;;;;;0.30;0.30;;;;;;;9.18;67.20;102397.28;5164208;28;20046;-81
2022/03/17 10:36:30;;;;;;;0.20;0.20;;;;;;;9.23;66.81;102403.41;5138513;28;20046;-82
2022/03/17 10:42:48;;;;;;;0.20;0.20;;;;;;;9.06;67.24;102409.41;5096927;28;20043;-80
2022/03/17 10:45:30;;;;;;;0.30;0.30;;;;;;;9.11;67.01;102406.84;5155935;28;20050;-80
2022/03/17 10:48:16;;;;;;;0.20;0.20;;;;;;;9.14;67.15;102415.59;5151227;28;20046;-81
2022/03/17 10:50:52;;;;;;;0.30;0.30;;;;;;;9.02;66.93;102430.34;5138906;28;20034;-80
2022/03/17 10:53:28;;;;;;;0.50;0.50;;;;;;;9.06;67.40;102429.50;5119989;28;20042;-78
2022/03/17 10:56:13;;;;;;;0.40;0.40;;;;;;;9.38;66.17;102427.06;5155613;28;20030;-78
2022/03/17 10:58:46;;;;;;;0.30;0.30;;;;;;;9.19;67.33;102427.84;5171008;28;20121;-79
2022/03/17 11:01:47;;;;;;;0.30;0.30;;;;;;;9.28;67.19;102430.53;5159466;28;20068;-79
2022/03/17 11:04:17;;;;;;;10.50;1.02;;;;;;;9.30;68.61;102428.75;5164753;28;20026;-78
2022/03/17 11:06:54;;;;;;;0.28;0.28;;;;;;;9.37;67.94;102437.53;5156408;28;20046;-83
2022/03/17 11:09:28;;;;;;;0.30;0.30;;;;;;;9.42;68.56;102434.09;5166700;28;20472;-80
2022/03/17 11:12:00;;;;;;;6.60;1.25;;;;;;;9.53;67.60;102430.66;5169024;28;20042;-79
2022/03/17 11:14:45;;;;;;;1.00;0.60;;;;;;;9.79;67.06;102435.13;5142418;28;20030;-80
2022/03/17 11:17:59;;;;;;;1.48;1.35;;;;;;;9.72;67.12;102445.56;5166007;28;20053;-81
2022/03/17 11:21:24;;;;;;;0.30;0.30;;;;;;;10.03;66.44;102450.94;5173658;28;20037;-80
2022/03/17 11:24:35;;;;;;;0.65;0.65;;;;;;;9.63;65.41;102456.00;5149045;28;20046;-79
2022/03/17 11:27:14;;;;;;;0.40;0.40;;;;;;;9.66;65.36;102458.66;5172455;28;20049;-78
2022/03/17 11:29:48;;;;;;;0.30;0.30;;;;;;;9.80;65.03;102463.97;5165624;28;20042;-79
2022/03/17 11:32:37;;;;;;;0.98;0.52;;;;;;;9.73;63.84;102465.66;5117257;28;20074;-80
2022/03/17 11:35:19;;;;;;;0.60;0.60;;;;;;;10.06;64.22;102468.44;5153152;28;20106;-80
2022/03/17 11:39:02;;;;;;;0.47;0.47;;;;;;;9.81;64.51;102472.69;5147148;28;20043;-80
2022/03/17 11:41:54;;;;;;;0.40;0.40;;;;;;;9.87;64.43;102470.97;5122166;28;20043;-78
2022/03/17 11:49:21;;;;;;;0.57;0.57;;;;;;;10.05;62.53;102478.03;5122590;28;20047;-79
2022/03/17 11:52:03;;;;;;;0.50;0.50;;;;;;;9.89;61.95;102478.84;5134068;28;20078;-79
2022/03/17 11:54:46;;;;;;;0.75;0.75;;;;;;;10.05;61.61;102483.28;5137667;28;20035;-79
2022/03/17 11:57:25;;;;;;;0.35;0.35;;;;;;;10.11;60.55;102481.56;5128913;28;20079;-79
2022/03/17 11:59:58;;;;;;;;;;;;;;;10.14;60.09;102490.31;5145549;28;20031;-79
2022/03/17 12:02:30;;;;;;;8.40;1.45;;;;;;;10.26;60.86;102485.94;5140017;28;19929;-79
2022/03/17 12:05:17;;;;;;;0.40;0.40;;;;;;;10.33;60.86;102485.13;5169707;28;20109;-78
2022/03/17 12:08:17;;;;;;;1.23;1.13;;;;;;;10.17;60.75;102492.06;5136375;28;20105;-78
2022/03/17 12:11:26;;;;;;;1.35;0.88;;;;;;;10.39;61.53;102491.28;5165089;28;20034;-79
2022/03/17 12:14:21;;;;;;;0.55;0.55;;;;;;;10.22;60.20;102485.97;5152426;28;20038;-79
2022/03/17 12:17:19;;;;;;;0.30;0.30;;;;;;;10.45;60.17;102497.44;5139523;28;20085;-80
2022/03/17 12:20:19;;;;;;;3.70;1.13;;;;;;;10.48;58.97;102495.69;5170417;28;20090;-79
2022/03/17 12:23:27;;;;;;;7.03;1.33;;;;;;;10.52;58.66;102494.78;5151874;28;20436;-80
2022/03/17 12:26:05;;;;;;;0.40;0.40;;;;;;;10.41;58.04;102506.16;5159085;28;20062;-81
2022/03/17 12:28:49;;;;;;;0.52;0.52;;;;;;;10.29;56.99;102502.56;5156705;28;20110;-79
2022/03/17 12:31:22;;;;;;;0.50;0.50;;;;;;;10.43;57.43;102501.78;5151986;28;20046;-78
2022/03/17 12:33:54;;;;;;;1.00;1.00;;;;;;;10.53;57.14;102507.03;5172433;28;20022;-79
2022/03/17 12:36:28;;;;;;;0.98;0.93;;;;;;;10.53;55.88;102506.19;5152667;28;20042;-79
2022/03/17 12:39:07;;;;;;;0.73;0.73;;;;;;;10.74;57.54;102514.94;5176111;28;20030;-79